Flight Track Log - Related Links

Times and Time Zones

All times are in EDT time to prevent confusion due to time zone crossing. See the AAR307 flight status page for this flight to view local times or setup timezone preferences in your user account.

Time Position Orientation Groundspeed Altitude Reporting Facility
EDT Latitude Longitude Course Direction KTS MPH feet Rate Location/Type
Mon 01:46:00 AM 37.4726 125.1799 271° West  Level Estimated
Mon 01:47:00 AM 37.4723 125.0822 270° West  Level Estimated
Mon 01:48:00 AM 37.4720 124.9844 270° West  Level Estimated
Mon 01:49:00 AM 37.4715 124.8867 270° West  Level Estimated
Mon 01:50:00 AM 37.4710 124.7890 270° West  Level Estimated
Mon 01:51:00 AM 37.4704 124.6912 270° West  Level Estimated
Mon 01:52:00 AM 37.4697 124.5935 270° West  Level Estimated
Mon 01:53:00 AM 37.4689 124.4958 269° West  Level Estimated
Mon 01:54:00 AM 37.4680 124.3980 269° West  Level Estimated
Mon 01:55:00 AM 37.4671 124.3003 269° West  Level Estimated
Mon 01:56:00 AM 37.4661 124.2026 269° West  Level Estimated
Mon 01:57:00 AM 37.4650 124.1049 269° West  Level Estimated
Mon 01:58:00 AM 37.4638 124.0071 269° West  Level Estimated
Mon 01:59:00 AM 37.4625 123.9094 269° West  Level Estimated
Mon 02:00:00 AM 37.4612 123.8117 269° West  Level Estimated
Mon 02:01:00 AM 37.4598 123.7140 269° West  Level Estimated
Mon 02:02:00 AM 37.4583 123.6163 269° West  Level Estimated
Mon 02:03:00 AM 37.4567 123.5186 269° West  Level Estimated
Mon 02:04:00 AM 37.4550 123.4209 269° West  Level Estimated
Mon 02:05:00 AM 37.4533 123.3232 269° West  Level Estimated
Mon 02:06:00 AM 37.4515 123.2255 269° West  Level Estimated
Mon 02:07:00 AM 37.4496 123.1279 269° West  Level Estimated
Mon 02:08:00 AM 37.4476 123.0302 269° West  Level Estimated
Mon 02:09:00 AM 37.4455 122.9325 269° West  Level Estimated
Mon 02:10:00 AM 37.4434 122.8348 268° West  Level Estimated
Mon 02:11:00 AM 37.4412 122.7372 268° West  Level Estimated
Mon 02:12:00 AM 37.4389 122.6395 268° West  Level Estimated
Mon 02:13:00 AM 37.4365 122.5419 268° West  Level Estimated
Mon 02:14:00 AM 37.4340 122.4442 268° West  Level Estimated
Mon 02:15:00 AM 37.4315 122.3466 268° West  Level Estimated
Mon 02:16:00 AM 37.4289 122.2490 268° West  Level Estimated
Mon 02:17:00 AM 37.4262 122.1513 268° West  Level Estimated
Mon 02:18:00 AM 37.4234 122.0537 268° West  Level Estimated
Mon 02:19:00 AM 37.4205 121.9561 268° West  Level Estimated
Mon 02:20:00 AM 37.4176 121.8585 268° West  Level Estimated
Mon 02:21:00 AM 37.4145 121.7609 268° West  Level Estimated
Mon 02:22:00 AM 37.4114 121.6634 268° West  Level Estimated
Mon 02:23:00 AM 37.4082 121.5658 268° West  Level Estimated
Mon 02:24:00 AM 37.4050 121.4682 268° West  Level Estimated
Mon 02:25:00 AM 37.4017 121.3717 268° West  Level Estimated
Mon 02:26:00 AM 37.4017 121.3717 218° Southwest  Level Estimated
Mon 02:27:00 AM 37.4017 121.3717 218° Southwest  Level Estimated
Mon 02:28:00 AM 37.4017 121.3717 218° Southwest  Level Estimated
Mon 02:29:00 AM 37.4017 121.3717 218° Southwest  Level Estimated
Mon 02:30:00 AM 37.4017 121.3717 218° Southwest  Level Estimated
Mon 02:31:00 AM 37.4017 121.3717 218° Southwest  Level Estimated
Mon 02:32:00 AM 37.4017 121.3717 218° Southwest  Level Estimated
Mon 02:33:00 AM 37.4017 121.3717 218° Southwest  Level Estimated
Mon 02:34:00 AM 37.4017 121.3717 218° Southwest  Level Estimated
Mon 02:35:00 AM 37.4017 121.3717 218° Southwest  Level Estimated
Mon 02:36:00 AM 37.4017 121.3717 218° Southwest  Level Estimated
Mon 02:37:00 AM 37.4017 121.3717 218° Southwest  Level Estimated
Mon 02:38:00 AM 37.4017 121.3717 218° Southwest  Level Estimated
Mon 02:39:00 AM 37.4017 121.3717 218° Southwest  Level Estimated
Mon 02:40:00 AM 37.4017 121.3717 218° Southwest  Level Estimated
Mon 02:41:00 AM 37.4017 121.3717 218° Southwest  Level Estimated

Login

Don't have an account? Register now (free) for customized features, flight alerts, and more!